createdAt,value
2016-06-29T00:00:58.018Z,79.81
2016-06-29T00:01:57.228Z,79.61
2016-06-29T00:02:57.200Z,79.71
2016-06-29T00:03:57.826Z,79.71
2016-06-29T00:04:57.175Z,79.81
2016-06-29T00:05:57.167Z,79.61
2016-06-29T00:06:57.779Z,80
2016-06-29T00:07:57.768Z,80.1
2016-06-29T00:08:57.756Z,80.68
2016-06-29T00:09:57.096Z,80.35
2016-06-29T00:10:57.726Z,79.81
2016-06-29T00:11:57.705Z,79.9
2016-06-29T00:12:57.693Z,80.44
2016-06-29T00:13:57.678Z,80.15
2016-06-29T00:14:57.028Z,79.81
2016-06-29T00:15:57.652Z,79.81
2016-06-29T00:16:57.631Z,79.71
2016-06-29T00:17:57.621Z,80.48
2016-06-29T00:18:57.596Z,80.15
2016-06-29T00:19:57.615Z,80.1
2016-06-29T00:20:57.577Z,80.19
2016-06-29T00:21:57.558Z,80.1
2016-06-29T00:22:57.544Z,80
2016-06-29T00:23:56.913Z,80.19
2016-06-29T00:24:57.515Z,80.68
2016-06-29T00:25:57.521Z,80.54
2016-06-29T00:26:56.851Z,80.68
2016-06-29T00:27:57.483Z,80.29
2016-06-29T00:28:57.470Z,80.58
2016-06-29T00:29:57.458Z,80.63
2016-06-29T00:30:57.434Z,81.16
2016-06-29T00:31:57.426Z,81.12
2016-06-29T00:32:56.826Z,81.12
2016-06-29T00:33:57.401Z,80.83
2016-06-29T00:34:57.379Z,80.83
2016-06-29T00:35:57.373Z,80.54
2016-06-29T00:36:57.353Z,80.19
2016-06-29T00:37:57.337Z,80.38
2016-06-29T00:38:57.321Z,80.1
2016-06-29T00:39:56.668Z,80.19
2016-06-29T00:40:57.302Z,80.58
2016-06-29T00:41:56.639Z,80.48
2016-06-29T00:42:57.273Z,80.77
2016-06-29T00:43:56.612Z,81.12
2016-06-29T00:44:57.227Z,81.7
2016-06-29T00:45:57.231Z,81.4
2016-06-29T00:46:57.203Z,81.02
2016-06-29T00:47:57.186Z,80.44
2016-06-29T00:48:57.173Z,80.29
2016-06-29T00:49:57.166Z,80
2016-06-29T00:50:56.507Z,79.61
2016-06-29T00:51:56.497Z,79.9
2016-06-29T00:52:56.476Z,80.38
2016-06-29T00:53:57.099Z,80.19
2016-06-29T00:54:56.452Z,80.68
2016-06-29T00:55:56.448Z,80.48
2016-06-29T00:56:57.062Z,80.19
2016-06-29T00:57:57.046Z,80.1
2016-06-29T00:58:57.032Z,80.1
2016-06-29T00:59:57.018Z,79.61
2016-06-29T01:00:57.010Z,80.48
2016-06-29T01:01:56.996Z,80.96
2016-06-29T01:02:56.339Z,80.06
2016-06-29T01:03:56.334Z,80.29
2016-06-29T01:04:56.312Z,80.68
2016-06-29T01:05:56.938Z,80.73
2016-06-29T01:06:56.925Z,80.54
2016-06-29T01:07:56.915Z,80.48
2016-06-29T01:08:56.893Z,80
2016-06-29T01:09:56.877Z,80.48
2016-06-29T01:10:56.238Z,81.16
2016-06-29T01:11:56.852Z,81.12
2016-06-29T01:12:56.206Z,81.7
2016-06-29T01:13:56.825Z,81.6
2016-06-29T01:14:56.810Z,80.73
2016-06-29T01:15:56.781Z,80.96
2016-06-29T01:16:56.778Z,80.77
2016-06-29T01:17:56.766Z,81.02
2016-06-29T01:18:56.744Z,80.77
2016-06-29T01:19:56.089Z,81.5
2016-06-29T01:20:56.721Z,81.12
2016-06-29T01:21:56.729Z,80.54
2016-06-29T01:22:56.683Z,80.58
2016-06-29T01:23:56.683Z,80.48
2016-06-29T01:24:56.663Z,80.58
2016-06-29T01:25:56.641Z,80.68
2016-06-29T01:26:56.003Z,81.63
2016-06-29T01:27:56.617Z,80.92
2016-06-29T01:28:55.967Z,81.02
2016-06-29T01:29:56.582Z,81.12
2016-06-29T01:30:56.575Z,81.7
2016-06-29T01:31:56.566Z,81.7
2016-06-29T01:32:55.904Z,81.98
2016-06-29T01:33:56.534Z,81.88
2016-06-29T01:34:55.870Z,81.3
2016-06-29T01:35:56.511Z,81.6
2016-06-29T01:36:56.501Z,81.5
2016-06-29T01:37:56.483Z,81.98
2016-06-29T01:38:55.821Z,81.3
2016-06-29T01:39:56.458Z,82.02
2016-06-29T01:40:56.428Z,81.7
2016-06-29T01:41:56.415Z,82.27
2016-06-29T01:42:56.406Z,81.5
2016-06-29T01:43:55.743Z,81.79
2016-06-29T01:44:56.370Z,81.6
2016-06-29T01:45:55.722Z,82.08
2016-06-29T01:46:56.339Z,81.6
2016-06-29T01:47:56.315Z,81.6
2016-06-29T01:48:56.315Z,81.88
2016-06-29T01:49:55.691Z,82.56
2016-06-29T01:50:56.280Z,81.98
2016-06-29T01:51:56.276Z,81.7
2016-06-29T01:52:56.249Z,81.79
2016-06-29T01:53:56.250Z,81.88
2016-06-29T01:54:56.222Z,81.88
2016-06-29T01:55:55.575Z,81.6
2016-06-29T01:56:55.566Z,80.92
2016-06-29T01:57:55.548Z,81.21
2016-06-29T01:58:56.174Z,81.5
2016-06-29T01:59:56.151Z,81.4
2016-06-29T02:00:56.139Z,81.4
2016-06-29T02:01:55.479Z,81.6
2016-06-29T02:02:56.102Z,80.92
2016-06-29T02:03:56.098Z,81.3
2016-06-29T02:04:56.090Z,81.35
2016-06-29T02:05:56.068Z,80.92
2016-06-29T02:06:56.057Z,81.7
2016-06-29T02:07:55.403Z,80.92
2016-06-29T02:08:56.029Z,81.5
2016-06-29T02:09:55.365Z,81.79
2016-06-29T02:10:55.999Z,81.4
2016-06-29T02:11:55.981Z,81.6
2016-06-29T02:12:55.969Z,81.12
2016-06-29T02:13:55.942Z,81.79
2016-06-29T02:14:55.928Z,81.4
2016-06-29T02:15:55.924Z,80.63
2016-06-29T02:16:55.903Z,80.83
2016-06-29T02:17:55.256Z,81.02
2016-06-29T02:18:55.890Z,80.92
2016-06-29T02:19:55.875Z,81.02
2016-06-29T02:20:55.854Z,80.44
2016-06-29T02:21:55.858Z,80.83
2016-06-29T02:22:55.814Z,81.02
2016-06-29T02:23:55.805Z,80.92
2016-06-29T02:24:55.150Z,81.4
2016-06-29T02:25:55.781Z,81.7
2016-06-29T02:26:55.758Z,81.21
2016-06-29T02:27:55.757Z,81.3
2016-06-29T02:28:55.088Z,81.7
2016-06-29T02:29:55.722Z,81.5
2016-06-29T02:30:55.064Z,81.79
2016-06-29T02:31:55.689Z,81.75
2016-06-29T02:32:55.680Z,81.02
2016-06-29T02:33:55.662Z,81.02
2016-06-29T02:34:55.013Z,81.7
2016-06-29T02:35:55.634Z,81.4
2016-06-29T02:36:55.618Z,81.5
2016-06-29T02:37:54.974Z,81.4
2016-06-29T02:38:55.585Z,81.6
2016-06-29T02:39:54.942Z,81.3
2016-06-29T02:40:55.568Z,81.5
2016-06-29T02:41:55.538Z,81.6
2016-06-29T02:42:55.537Z,81.3
2016-06-29T02:43:55.547Z,81.6
2016-06-29T02:44:55.507Z,81.3
2016-06-29T02:45:54.862Z,81.02
2016-06-29T02:46:55.471Z,81.02
2016-06-29T02:47:55.453Z,80.54
2016-06-29T02:48:54.812Z,81.02
2016-06-29T02:49:55.456Z,80.54
2016-06-29T02:50:55.411Z,81.7
2016-06-29T02:51:55.405Z,81.21
2016-06-29T02:52:55.382Z,81.6
2016-06-29T02:53:55.374Z,81.21
2016-06-29T02:54:54.727Z,81.02
2016-06-29T02:55:55.351Z,81.02
2016-06-29T02:56:55.323Z,81.12
2016-06-29T02:57:55.311Z,81.02
2016-06-29T02:58:55.299Z,81.02
2016-06-29T02:59:55.288Z,81.12
2016-06-29T03:00:55.278Z,81.21
2016-06-29T03:01:55.258Z,80.73
2016-06-29T03:02:54.612Z,81.7
2016-06-29T03:03:55.226Z,81.5
2016-06-29T03:04:55.210Z,81.4
2016-06-29T03:05:55.199Z,81.88
2016-06-29T03:06:55.194Z,82.17
2016-06-29T03:07:54.549Z,82.08
2016-06-29T03:08:55.162Z,82.17
2016-06-29T03:09:55.145Z,81.3
2016-06-29T03:10:55.123Z,81.02
2016-06-29T03:11:55.118Z,81.7
2016-06-29T03:12:55.102Z,81.6
2016-06-29T03:13:54.455Z,81.4
2016-06-29T03:14:55.077Z,81.6
2016-06-29T03:15:55.058Z,81.02
2016-06-29T03:16:55.042Z,80.92
2016-06-29T03:17:55.030Z,81.7
2016-06-29T03:18:54.381Z,80.44
2016-06-29T03:19:55.011Z,81.21
2016-06-29T03:20:54.980Z,81.7
2016-06-29T03:21:54.975Z,81.02
2016-06-29T03:22:54.324Z,81.06
2016-06-29T03:23:54.940Z,81.6
2016-06-29T03:24:54.927Z,81.6
2016-06-29T03:25:54.901Z,81.5
2016-06-29T03:26:54.902Z,81.7
2016-06-29T03:27:54.278Z,82.04
2016-06-29T03:28:54.872Z,81.3
2016-06-29T03:29:54.855Z,81.79
2016-06-29T03:30:54.835Z,81.88
2016-06-29T03:31:54.824Z,81.88
2016-06-29T03:32:54.806Z,81.4
2016-06-29T03:33:54.789Z,81.6
2016-06-29T03:34:54.777Z,81.6
2016-06-29T03:35:54.789Z,81.79
2016-06-29T03:36:54.139Z,81.98
2016-06-29T03:37:54.751Z,81.6
2016-06-29T03:38:54.721Z,82.94
2016-06-29T03:39:54.713Z,82.04
2016-06-29T03:40:54.690Z,82.08
2016-06-29T03:41:54.681Z,82.08
2016-06-29T03:42:54.662Z,82.27
2016-06-29T03:43:54.014Z,83.33
2016-06-29T03:44:53.996Z,82.81
2016-06-29T03:45:53.985Z,83.29
2016-06-29T03:46:54.634Z,83.19
2016-06-29T03:47:54.600Z,82.42
2016-06-29T03:48:53.953Z,82.46
2016-06-29T03:49:53.923Z,82.37
2016-06-29T03:50:54.554Z,83.23
2016-06-29T03:51:54.533Z,82.9
2016-06-29T03:52:54.520Z,82.46
2016-06-29T03:53:54.519Z,81.7
2016-06-29T03:54:54.489Z,81.79
2016-06-29T03:55:54.475Z,81.6
2016-06-29T03:56:54.457Z,82.75
2016-06-29T03:57:53.813Z,83.09
2016-06-29T03:58:53.795Z,82.65
2016-06-29T03:59:54.409Z,82.65
2016-06-29T04:00:54.405Z,83.23
2016-06-29T04:01:54.385Z,82.81
2016-06-29T04:02:54.406Z,83.19
2016-06-29T04:03:54.351Z,83.39
2016-06-29T04:04:54.367Z,83.09
2016-06-29T04:05:54.338Z,82.9
2016-06-29T04:06:54.317Z,83.09
2016-06-29T04:07:53.676Z,83.09
2016-06-29T04:08:54.279Z,82.81
2016-06-29T04:09:54.273Z,82.81
2016-06-29T04:10:54.262Z,83.14
2016-06-29T04:11:54.254Z,83
2016-06-29T04:12:54.234Z,83.39
2016-06-29T04:13:53.571Z,83.29
2016-06-29T04:14:53.566Z,83.23
2016-06-29T04:15:54.189Z,83.09
2016-06-29T04:16:54.176Z,83.39
2016-06-29T04:17:53.516Z,83.09
2016-06-29T04:18:54.135Z,83.19
2016-06-29T04:19:54.131Z,83.09
2016-06-29T04:20:53.475Z,83.67
2016-06-29T04:21:54.112Z,83.86
2016-06-29T04:22:54.085Z,83.86
2016-06-29T04:23:54.064Z,83.86
2016-06-29T04:24:53.421Z,83.77
2016-06-29T04:25:54.032Z,84.34
2016-06-29T04:26:53.395Z,84.54
2016-06-29T04:27:53.370Z,83.77
2016-06-29T04:28:54.018Z,83.29
2016-06-29T04:29:53.989Z,83.29
2016-06-29T04:30:53.955Z,83.58
2016-06-29T04:31:53.945Z,83.29
2016-06-29T04:32:53.933Z,83.58
2016-06-29T04:33:53.275Z,83.67
2016-06-29T04:34:53.903Z,83.48
2016-06-29T04:35:53.911Z,84.16
2016-06-29T04:36:53.883Z,83.86
2016-06-29T04:37:53.864Z,84.25
2016-06-29T04:38:53.851Z,84.34
2016-06-29T04:39:53.842Z,84.54
2016-06-29T04:40:53.815Z,85.5
2016-06-29T04:41:53.802Z,85.11
2016-06-29T04:42:53.787Z,85.17
2016-06-29T04:43:53.775Z,85.31
2016-06-29T04:44:53.767Z,84.63
2016-06-29T04:45:53.744Z,84.73
2016-06-29T04:46:53.734Z,84.73
2016-06-29T04:47:53.077Z,84.44
2016-06-29T04:48:53.706Z,84.06
2016-06-29T04:49:53.054Z,84.54
2016-06-29T04:50:53.030Z,85.4
2016-06-29T04:51:53.020Z,85.21
2016-06-29T04:52:53.011Z,85.07
2016-06-29T04:53:53.628Z,84.63
2016-06-29T04:54:52.978Z,85.11
2016-06-29T04:55:53.597Z,84.4
2016-06-29T04:56:53.611Z,84.54
2016-06-29T04:57:53.564Z,84.16
2016-06-29T04:58:53.553Z,84.63
2016-06-29T04:59:52.917Z,84.06
2016-06-29T05:00:53.549Z,84.44
2016-06-29T05:01:53.511Z,84.06
2016-06-29T05:02:52.859Z,83.86
2016-06-29T05:03:53.493Z,84.25
2016-06-29T05:04:52.833Z,84.16
2016-06-29T05:05:53.455Z,84.44
2016-06-29T05:06:53.449Z,84.34
2016-06-29T05:07:53.426Z,84.06
2016-06-29T05:08:53.414Z,84.73
2016-06-29T05:09:53.400Z,85.21
2016-06-29T05:10:53.384Z,84.44
2016-06-29T05:11:53.371Z,85.31
2016-06-29T05:12:52.715Z,85.36
2016-06-29T05:13:52.694Z,84.44
2016-06-29T05:14:53.312Z,84.92
2016-06-29T05:15:53.303Z,84.4
2016-06-29T05:16:53.291Z,84.44
2016-06-29T05:17:52.639Z,84.34
2016-06-29T05:18:53.264Z,85.11
2016-06-29T05:19:53.243Z,84.3
2016-06-29T05:20:53.230Z,84.25
2016-06-29T05:21:52.584Z,84.54
2016-06-29T05:22:53.230Z,85.31
2016-06-29T05:23:53.194Z,84.88
2016-06-29T05:24:52.542Z,84.4
2016-06-29T05:25:53.175Z,84.54
2016-06-29T05:26:52.508Z,85.11
2016-06-29T05:27:53.133Z,84.88
2016-06-29T05:28:53.150Z,84.83
2016-06-29T05:29:53.105Z,84.63
2016-06-29T05:30:53.115Z,85.4
2016-06-29T05:31:53.065Z,84.73
2016-06-29T05:32:53.079Z,85.02
2016-06-29T05:33:53.054Z,85.31
2016-06-29T05:34:53.042Z,85.31
2016-06-29T05:35:53.008Z,85.4
2016-06-29T05:36:52.360Z,85.02
2016-06-29T05:37:52.346Z,85.31
2016-06-29T05:38:52.971Z,85.4
2016-06-29T05:39:52.973Z,85.11
2016-06-29T05:40:52.314Z,84.92
2016-06-29T05:41:52.922Z,85.11
2016-06-29T05:42:52.910Z,84.92
2016-06-29T05:43:52.893Z,84.92
2016-06-29T05:44:52.246Z,84.92
2016-06-29T05:45:52.865Z,85.98
2016-06-29T05:46:52.858Z,86.22
2016-06-29T05:47:52.837Z,85.88
2016-06-29T05:48:52.827Z,85.88
2016-06-29T05:49:52.807Z,85.31
2016-06-29T05:50:52.784Z,85.21
2016-06-29T05:51:52.785Z,85.02
2016-06-29T05:52:52.131Z,85.88
2016-06-29T05:53:52.738Z,85.6
2016-06-29T05:54:52.102Z,85.6
2016-06-29T05:55:52.721Z,85.69
2016-06-29T05:56:52.701Z,85.6
2016-06-29T05:57:52.690Z,85.78
2016-06-29T05:58:52.673Z,85.88
2016-06-29T05:59:52.034Z,85.4
2016-06-29T06:00:52.676Z,85.21
2016-06-29T06:01:52.635Z,85.4
2016-06-29T06:02:52.623Z,85.78
2016-06-29T06:03:52.600Z,85.5
2016-06-29T06:04:52.595Z,85.4
2016-06-29T06:05:51.927Z,85.11
2016-06-29T06:06:51.914Z,85.21
2016-06-29T06:07:51.901Z,85.02
2016-06-29T06:08:52.533Z,85.4
2016-06-29T06:09:51.885Z,84.44
2016-06-29T06:10:52.502Z,84.34
2016-06-29T06:11:51.844Z,84.63
2016-06-29T06:12:52.467Z,85.11
2016-06-29T06:13:52.462Z,85.02
2016-06-29T06:14:51.799Z,84.34
2016-06-29T06:15:52.430Z,84.44
2016-06-29T06:16:52.442Z,84.63
2016-06-29T06:17:52.405Z,84.63
2016-06-29T06:18:51.746Z,84.63
2016-06-29T06:19:51.728Z,84.16
2016-06-29T06:20:52.350Z,84.16
2016-06-29T06:21:52.345Z,83.62
2016-06-29T06:22:51.682Z,83.39
2016-06-29T06:23:52.310Z,83.09
2016-06-29T06:24:52.293Z,82.9
2016-06-29T06:25:52.286Z,83.29
2016-06-29T06:26:52.266Z,83.04
2016-06-29T06:27:52.254Z,83
2016-06-29T06:28:51.590Z,82.9
2016-06-29T06:29:52.214Z,83.29
2016-06-29T06:30:52.216Z,83.09
2016-06-29T06:31:51.556Z,83.48
2016-06-29T06:32:52.175Z,83.33
2016-06-29T06:33:52.168Z,82.9
2016-06-29T06:34:51.509Z,83.48
2016-06-29T06:35:52.147Z,82.85
2016-06-29T06:36:52.162Z,82.27
2016-06-29T06:37:52.107Z,82.46
2016-06-29T06:38:52.090Z,82.75
2016-06-29T06:39:52.071Z,82.85
2016-06-29T06:40:52.072Z,82.81
2016-06-29T06:41:51.410Z,82.46
2016-06-29T06:42:52.033Z,82.23
2016-06-29T06:43:52.022Z,81.88
2016-06-29T06:44:51.371Z,81.7
2016-06-29T06:45:51.351Z,81.5
2016-06-29T06:46:51.361Z,81.79
2016-06-29T06:47:51.954Z,81.79
2016-06-29T06:48:51.950Z,81.88
2016-06-29T06:49:51.933Z,80.92
2016-06-29T06:50:51.933Z,81.06
2016-06-29T06:51:51.898Z,80.96
2016-06-29T06:52:51.254Z,80.38
2016-06-29T06:53:51.237Z,80.38
2016-06-29T06:54:51.859Z,80.96
2016-06-29T06:55:51.201Z,80.19
2016-06-29T06:56:51.827Z,80.58
2016-06-29T06:57:51.175Z,80.19
2016-06-29T06:58:51.800Z,80.29
2016-06-29T06:59:51.787Z,80.38
2016-06-29T07:00:51.779Z,79.9
2016-06-29T07:01:51.115Z,79.43
2016-06-29T07:02:51.862Z,80.19
2016-06-29T07:03:51.088Z,80.1
2016-06-29T07:04:51.723Z,80.19
2016-06-29T07:05:51.690Z,80.1
2016-06-29T07:06:51.682Z,80.19
2016-06-29T07:07:51.734Z,80
2016-06-29T07:08:51.659Z,80.38
2016-06-29T07:09:50.998Z,80.54
2016-06-29T07:10:51.642Z,80
2016-06-29T07:11:51.619Z,79.33
2016-06-29T07:12:51.592Z,79.33
2016-06-29T07:13:51.583Z,79.43
2016-06-29T07:14:51.562Z,79.52
2016-06-29T07:15:51.555Z,79.61
2016-06-29T07:16:51.546Z,79.81
2016-06-29T07:17:50.886Z,79.9
2016-06-29T07:18:50.878Z,79.43
2016-06-29T07:19:50.885Z,79.9
2016-06-29T07:20:51.478Z,80
2016-06-29T07:21:50.841Z,79.23
2016-06-29T07:22:51.455Z,79.03
2016-06-29T07:23:51.433Z,79.71
2016-06-29T07:24:51.430Z,80.19
2016-06-29T07:25:51.411Z,80.48
2016-06-29T07:26:51.398Z,80.58
2016-06-29T07:27:51.380Z,80.58
2016-06-29T07:28:51.360Z,80.77
2016-06-29T07:29:51.355Z,80.19
2016-06-29T07:30:51.351Z,80.19
2016-06-29T07:31:51.320Z,80.48
2016-06-29T07:32:51.310Z,79.71
2016-06-29T07:33:50.657Z,79.52
2016-06-29T07:34:50.642Z,79.66
2016-06-29T07:35:51.265Z,79.33
2016-06-29T07:36:51.253Z,79.17
2016-06-29T07:37:50.601Z,78.88
2016-06-29T07:38:51.232Z,78.69
2016-06-29T07:39:51.206Z,78.88
2016-06-29T07:40:51.189Z,78.98
2016-06-29T07:41:50.552Z,78.11
2016-06-29T07:42:50.559Z,77.92
2016-06-29T07:43:51.155Z,78.11
2016-06-29T07:44:51.133Z,77.53
2016-06-29T07:45:51.130Z,77.63
2016-06-29T07:46:51.111Z,77.19
2016-06-29T07:47:51.105Z,77.19
2016-06-29T07:48:51.083Z,76.51
2016-06-29T07:49:51.069Z,76.61
2016-06-29T07:50:51.064Z,76.51
2016-06-29T07:51:51.043Z,76.32
2016-06-29T07:52:51.022Z,76.51
2016-06-29T07:53:51.010Z,77.09
2016-06-29T07:54:50.999Z,76.32
2016-06-29T07:55:50.353Z,76.03
2016-06-29T07:56:50.344Z,76.51
2016-06-29T07:57:50.957Z,76.32
2016-06-29T07:58:50.946Z,76.61
2016-06-29T07:59:50.932Z,76.23
2016-06-29T08:00:50.915Z,76.32
2016-06-29T08:01:50.894Z,76.13
2016-06-29T08:02:50.243Z,76.23
2016-06-29T08:03:50.877Z,76.13
2016-06-29T08:04:50.229Z,75.65
2016-06-29T08:05:50.835Z,74.72
2016-06-29T08:06:50.195Z,75.01
2016-06-29T08:07:50.810Z,74.82
2016-06-29T08:08:50.840Z,75.01
2016-06-29T08:09:50.145Z,74.91
2016-06-29T08:10:50.762Z,74.91
2016-06-29T08:11:50.760Z,74.52
2016-06-29T08:12:50.738Z,74.33
2016-06-29T08:13:50.725Z,74.43
2016-06-29T08:14:50.074Z,74.08
2016-06-29T08:15:50.698Z,73.95
2016-06-29T08:16:50.691Z,74.47
2016-06-29T08:17:50.075Z,74.05
2016-06-29T08:18:50.665Z,73.47
2016-06-29T08:19:50.659Z,74.08
2016-06-29T08:20:49.995Z,73.85
2016-06-29T08:21:50.630Z,73.57
2016-06-29T08:22:49.971Z,74.24
2016-06-29T08:23:50.636Z,73.85
2016-06-29T08:24:50.578Z,73.75
2016-06-29T08:25:50.573Z,74.24
2016-06-29T08:26:50.554Z,73.75
2016-06-29T08:27:49.910Z,74.05
2016-06-29T08:28:50.523Z,73.47
2016-06-29T08:29:49.869Z,73.47
2016-06-29T08:30:50.492Z,73.37
2016-06-29T08:31:50.472Z,72.69
2016-06-29T08:32:50.479Z,72.34
2016-06-29T08:33:50.459Z,72.73
2016-06-29T08:34:50.438Z,72.44
2016-06-29T08:35:50.427Z,72.25
2016-06-29T08:36:49.787Z,71.48
2016-06-29T08:37:50.407Z,71.86
2016-06-29T08:38:50.388Z,72.34
2016-06-29T08:39:50.412Z,72.73
2016-06-29T08:40:50.358Z,72.25
2016-06-29T08:41:50.341Z,72.83
2016-06-29T08:42:50.340Z,72.25
2016-06-29T08:43:50.303Z,71.67
2016-06-29T08:44:49.659Z,71.77
2016-06-29T08:45:50.283Z,71.77
2016-06-29T08:46:49.629Z,71.58
2016-06-29T08:47:49.634Z,71.19
2016-06-29T08:48:50.276Z,70.9
2016-06-29T08:49:49.595Z,71.03
2016-06-29T08:50:49.588Z,71.77
2016-06-29T08:51:50.210Z,71.86
2016-06-29T08:52:50.189Z,71.77
2016-06-29T08:53:49.538Z,72.09
2016-06-29T08:54:50.164Z,71.51
2016-06-29T08:55:50.159Z,71.12
2016-06-29T08:56:50.140Z,70.94
2016-06-29T08:57:50.127Z,70.64
2016-06-29T08:58:50.106Z,71.22
2016-06-29T08:59:50.092Z,70.45
2016-06-29T09:00:50.094Z,72
2016-06-29T09:01:50.066Z,71.48
2016-06-29T09:02:50.056Z,71.42
2016-06-29T09:03:50.030Z,71.42
2016-06-29T09:04:49.387Z,70.64
2016-06-29T09:05:50.005Z,70.94
2016-06-29T09:06:50.004Z,71.51
2016-06-29T09:07:49.988Z,70.84
2016-06-29T09:08:49.979Z,70.64
2016-06-29T09:09:49.971Z,71.12
2016-06-29T09:10:49.941Z,71.32
2016-06-29T09:11:49.927Z,71.22
2016-06-29T09:12:49.275Z,70.74
2016-06-29T09:13:49.905Z,70.45
2016-06-29T09:14:49.894Z,70.26
2016-06-29T09:15:49.886Z,70.29
2016-06-29T09:16:49.232Z,69.71
2016-06-29T09:17:49.843Z,69.97
2016-06-29T09:18:49.208Z,69.62
2016-06-29T09:19:49.180Z,69.23
2016-06-29T09:20:49.820Z,69.13
2016-06-29T09:21:49.801Z,69.71
2016-06-29T09:22:49.783Z,69.9
2016-06-29T09:23:49.776Z,69.32
2016-06-29T09:24:49.760Z,69.42
2016-06-29T09:25:49.750Z,69.13
2016-06-29T09:26:49.742Z,69.62
2016-06-29T09:27:49.100Z,70.29
2016-06-29T09:28:49.719Z,71.03
2016-06-29T09:29:49.700Z,70.26
2016-06-29T09:30:49.686Z,70.97
2016-06-29T09:31:49.662Z,70.97
2016-06-29T09:32:49.645Z,71.51
2016-06-29T09:33:49.010Z,70.29
2016-06-29T09:34:49.631Z,69.9
2016-06-29T09:35:49.623Z,70.1
2016-06-29T09:36:49.599Z,69.32
2016-06-29T09:37:49.589Z,69.62
2016-06-29T09:38:49.611Z,69.71
2016-06-29T09:39:49.583Z,69.46
2016-06-29T09:40:48.907Z,69.07
2016-06-29T09:41:49.529Z,69.26
2016-06-29T09:42:49.524Z,69.23
2016-06-29T09:43:49.507Z,68.4
2016-06-29T09:44:49.521Z,69.23
2016-06-29T09:45:49.475Z,69.52
2016-06-29T09:46:48.818Z,69.04
2016-06-29T09:47:49.457Z,68.98
2016-06-29T09:48:48.802Z,69.07
2016-06-29T09:49:49.495Z,68.4
2016-06-29T09:50:48.782Z,67.82
2016-06-29T09:51:49.399Z,68.1
2016-06-29T09:52:49.397Z,68.1
2016-06-29T09:53:49.370Z,67.52
2016-06-29T09:54:49.368Z,67.91
2016-06-29T09:55:49.337Z,67.62
2016-06-29T09:56:49.338Z,68.2
2016-06-29T09:57:49.318Z,66.66
2016-06-29T09:58:49.302Z,67.52
2016-06-29T09:59:48.670Z,68.2
2016-06-29T10:00:49.285Z,67.33
2016-06-29T10:01:49.302Z,66.88
2016-06-29T10:02:49.366Z,67.27
2016-06-29T10:03:49.237Z,66.59
2016-06-29T10:04:48.614Z,66.33
2016-06-29T10:05:49.214Z,65.17
2016-06-29T10:06:49.207Z,64.69
2016-06-29T10:07:48.539Z,64.11
2016-06-29T10:08:49.179Z,64.01
2016-06-29T10:09:49.161Z,64.4
2016-06-29T10:10:48.509Z,64.5
2016-06-29T10:11:49.145Z,64.11
2016-06-29T10:12:48.509Z,64.59
2016-06-29T10:13:49.131Z,64.5
2016-06-29T10:14:49.102Z,63.34
2016-06-29T10:15:48.455Z,63.46
2016-06-29T10:16:48.442Z,63.37
2016-06-29T10:17:49.069Z,64.34
2016-06-29T10:18:49.047Z,62.98
2016-06-29T10:19:48.411Z,63.27
2016-06-29T10:20:49.035Z,63.18
2016-06-29T10:21:49.029Z,62.79
2016-06-29T10:22:48.991Z,62.69
2016-06-29T10:23:48.984Z,62.04
2016-06-29T10:24:48.968Z,61.95
2016-06-29T10:25:48.957Z,61.11
2016-06-29T10:26:48.942Z,60.62
2016-06-29T10:27:48.931Z,60.33
2016-06-29T10:28:48.921Z,59.27
2016-06-29T10:29:48.946Z,59.07
2016-06-29T10:30:48.904Z,59.36
2016-06-29T10:31:48.885Z,58.69
2016-06-29T10:32:48.878Z,58.04
2016-06-29T10:33:48.215Z,57.65
2016-06-29T10:34:48.220Z,57.29
2016-06-29T10:35:48.845Z,57.39
2016-06-29T10:36:48.818Z,57.09
2016-06-29T10:37:48.819Z,57.19
2016-06-29T10:38:48.799Z,56.9
2016-06-29T10:39:48.164Z,56.87
2016-06-29T10:40:48.786Z,56.9
2016-06-29T10:41:48.754Z,57.09
2016-06-29T10:42:48.752Z,55.93
2016-06-29T10:43:48.739Z,56.03
2016-06-29T10:44:48.723Z,55.28
2016-06-29T10:45:48.071Z,54.5
2016-06-29T10:46:48.698Z,54.14
2016-06-29T10:47:48.707Z,54.6
2016-06-29T10:48:48.687Z,53.34
2016-06-29T10:49:48.668Z,53.66
2016-06-29T10:50:48.655Z,54.14
2016-06-29T10:51:48.687Z,56.13
2016-06-29T10:52:48.635Z,54.41
2016-06-29T10:53:47.975Z,53.83
2016-06-29T10:54:47.968Z,52.59
2016-06-29T10:55:48.588Z,52.01
2016-06-29T10:56:47.939Z,53.08
2016-06-29T10:57:47.954Z,52.95
2016-06-29T10:58:48.555Z,52.4
2016-06-29T10:59:48.549Z,52.33
2016-06-29T11:00:48.548Z,52.59
2016-06-29T11:01:48.531Z,53.66
2016-06-29T11:02:48.528Z,52.98
2016-06-29T11:03:48.509Z,52.78
2016-06-29T11:04:47.872Z,51.84
2016-06-29T11:05:48.509Z,51.75
2016-06-29T11:06:48.478Z,51.77
2016-06-29T11:07:48.502Z,51.16
2016-06-29T11:08:48.453Z,50.99
2016-06-29T11:09:48.442Z,51.87
2016-06-29T11:10:48.428Z,52.13
2016-06-29T11:11:48.431Z,52.23
2016-06-29T11:12:47.787Z,52.03
2016-06-29T11:13:48.395Z,51.65
2016-06-29T11:14:48.386Z,51.09
2016-06-29T11:15:48.388Z,49.85
2016-06-29T11:16:48.356Z,49.87
2016-06-29T11:17:48.350Z,49.95
2016-06-29T11:18:47.702Z,48.88
2016-06-29T11:19:47.702Z,48.41
2016-06-29T11:20:48.311Z,47.74
2016-06-29T11:21:48.320Z,48.05
2016-06-29T11:22:48.288Z,47.37
2016-06-29T11:23:48.297Z,47.66
2016-06-29T11:24:48.287Z,48.25
2016-06-29T11:25:48.309Z,49.97
2016-06-29T11:26:48.255Z,50.04
2016-06-29T11:27:48.237Z,49.46
2016-06-29T11:28:48.227Z,48.97
2016-06-29T11:29:48.230Z,50.04
2016-06-29T11:30:48.201Z,49.37
2016-06-29T11:31:48.199Z,49.76
2016-06-29T11:32:48.189Z,48.97
2016-06-29T11:33:48.174Z,49.22
2016-06-29T11:34:48.170Z,48.34
2016-06-29T11:35:48.170Z,49.22
2016-06-29T11:36:48.152Z,49.17
2016-06-29T11:37:48.141Z,49.19
2016-06-29T11:38:48.122Z,48.68
2016-06-29T11:39:48.116Z,47.71
2016-06-29T11:40:48.102Z,47.13
2016-06-29T11:41:48.150Z,47.47
2016-06-29T11:42:48.094Z,46.2
2016-06-29T11:43:48.088Z,46.81
2016-06-29T11:44:48.087Z,46.01
2016-06-29T11:45:48.087Z,46.32
2016-06-29T11:46:48.069Z,45.15
2016-06-29T11:47:48.063Z,44.59
2016-06-29T11:48:48.070Z,44.48
2016-06-29T11:49:47.425Z,43.71
2016-06-29T11:50:48.078Z,43.43
2016-06-29T11:51:48.054Z,43.52
2016-06-29T11:52:47.406Z,42.35
2016-06-29T11:53:47.398Z,42.3
2016-06-29T11:54:48.034Z,42.4
2016-06-29T11:55:48.248Z,41.13
2016-06-29T11:56:48.090Z,40.76
2016-06-29T11:57:48.038Z,41.15
2016-06-29T11:58:48.049Z,41.27
2016-06-29T11:59:48.014Z,41.73
2016-06-29T12:00:48.012Z,41.03
2016-06-29T12:01:48.007Z,41.22
2016-06-29T12:02:48.012Z,40.64
2016-06-29T12:03:48.008Z,39.31
2016-06-29T12:04:47.358Z,39.98
2016-06-29T12:05:48.009Z,39.86
2016-06-29T12:06:47.994Z,39.08
2016-06-29T12:07:48.088Z,38.53
2016-06-29T12:08:47.354Z,39.12
2016-06-29T12:09:47.988Z,39.61
2016-06-29T12:10:47.350Z,39.51
2016-06-29T12:11:47.989Z,39
2016-06-29T12:12:47.987Z,37.75
2016-06-29T12:13:47.990Z,38.16
2016-06-29T12:14:47.991Z,38.09
2016-06-29T12:15:47.990Z,37.21
2016-06-29T12:16:47.972Z,38.01
2016-06-29T12:17:47.974Z,37.67
2016-06-29T12:18:48.020Z,38.65
2016-06-29T12:19:47.974Z,37.83
2016-06-29T12:20:47.974Z,37.57
2016-06-29T12:21:47.962Z,36.13
2016-06-29T12:22:47.971Z,35.97
2016-06-29T12:23:47.982Z,36.07
2016-06-29T12:24:47.975Z,36.94
2016-06-29T12:25:47.966Z,38.18
2016-06-29T12:26:47.965Z,37.79
2016-06-29T12:27:47.965Z,38.01
2016-06-29T12:28:47.319Z,37.91
2016-06-29T12:29:47.315Z,37.4
2016-06-29T12:30:48.283Z,37.01
2016-06-29T12:31:47.313Z,37.4
2016-06-29T12:32:47.994Z,37.87
2016-06-29T12:33:47.951Z,37.4
2016-06-29T12:34:48.066Z,36.52
2016-06-29T12:35:47.298Z,36.83
2016-06-29T12:36:47.311Z,37.29
2016-06-29T12:37:47.954Z,37.38
2016-06-29T12:38:47.941Z,37.21
2016-06-29T12:39:47.466Z,39.08
2016-06-29T12:40:47.943Z,38.71
2016-06-29T12:41:47.614Z,38.35
2016-06-29T12:42:47.937Z,37.89
2016-06-29T12:43:47.333Z,36.05
2016-06-29T12:44:47.930Z,36.16
2016-06-29T12:45:48.129Z,35.87
2016-06-29T12:46:49.002Z,35.87
2016-06-29T12:47:48.587Z,35.89
2016-06-29T12:48:48.192Z,36.36
2016-06-29T12:49:47.930Z,36.15
2016-06-29T12:50:47.937Z,37.73
2016-06-29T12:51:47.295Z,37.52
2016-06-29T12:52:47.936Z,39.04
2016-06-29T12:53:48.050Z,38.32
2016-06-29T12:54:47.933Z,37.85
2016-06-29T12:55:47.943Z,38.38
2016-06-29T12:56:48.302Z,38.45
2016-06-29T12:57:47.299Z,38.16